createdAt,value
2023-01-19T01:24:19.424Z,10.82
2023-01-19T01:26:51.928Z,10.82
2023-01-19T01:29:24.707Z,11.88
2023-01-19T01:31:57.449Z,12.15
2023-01-19T01:34:30.218Z,12.50
2023-01-19T01:37:03.132Z,12.23
2023-01-19T01:39:38.148Z,11.97
2023-01-19T01:42:19.415Z,11.43
2023-01-19T01:44:54.820Z,12.20
2023-01-19T01:47:41.186Z,11.50
2023-01-19T01:50:18.600Z,12.15
2023-01-19T01:53:10.999Z,12.20
2023-01-19T01:55:48.444Z,12.53
2023-01-19T01:58:21.111Z,13.25
2023-01-19T02:01:11.641Z,12.93
2023-01-19T02:03:54.682Z,12.58
2023-01-19T02:06:27.034Z,11.73
2023-01-19T02:09:26.258Z,13.32
2023-01-19T02:12:17.078Z,13.50
2023-01-19T02:14:49.842Z,13.45
2023-01-19T02:17:22.578Z,11.68
2023-01-19T02:19:55.136Z,13.53
2023-01-19T02:22:34.852Z,12.53
2023-01-19T02:25:07.899Z,12.78
2023-01-19T02:27:40.363Z,13.55
2023-01-19T02:30:13.908Z,12.20
2023-01-19T02:32:46.700Z,11.28
2023-01-19T02:35:19.353Z,12.20
2023-01-19T02:37:52.427Z,12.70
2023-01-19T02:40:26.877Z,12.63
2023-01-19T02:43:01.403Z,11.12
2023-01-19T02:45:34.426Z,12.58
2023-01-19T02:48:07.546Z,14.55
2023-01-19T02:50:45.002Z,13.83
2023-01-19T02:54:07.748Z,13.30
2023-01-19T02:57:06.733Z,13.98
2023-01-19T03:00:13.526Z,12.68
2023-01-19T03:03:11.776Z,12.78
2023-01-19T03:06:01.740Z,13.45
2023-01-19T03:08:44.941Z,12.50
2023-01-19T03:11:17.422Z,12.23
2023-01-19T03:13:54.067Z,11.97
2023-01-19T03:16:45.624Z,13.58
2023-01-19T03:19:31.837Z,11.65
2023-01-19T03:22:11.621Z,11.48
2023-01-19T03:24:45.807Z,11.08
2023-01-19T03:27:28.086Z,11.78
2023-01-19T03:30:03.769Z,11.40
2023-01-19T03:32:44.577Z,11.53
2023-01-19T03:35:17.339Z,12.18
2023-01-19T03:37:52.271Z,11.03
2023-01-19T03:40:25.873Z,11.57
2023-01-19T03:42:59.780Z,11.50
2023-01-19T03:45:34.421Z,11.95
2023-01-19T03:48:07.529Z,11.70
2023-01-19T03:50:42.072Z,10.63
2023-01-19T03:53:17.698Z,11.68
2023-01-19T03:55:54.396Z,11.33
2023-01-19T03:58:27.087Z,12.63
2023-01-19T04:00:59.628Z,11.85
2023-01-19T04:03:32.762Z,10.78
2023-01-19T04:06:05.771Z,10.38
2023-01-19T04:08:38.563Z,9.30
2023-01-19T04:11:11.373Z,9.80
2023-01-19T04:13:44.127Z,10.53
2023-01-19T04:16:18.415Z,11.65
2023-01-19T04:18:52.844Z,13.10
2023-01-19T04:21:25.615Z,12.23
2023-01-19T04:23:59.192Z,11.03
2023-01-19T04:26:32.063Z,11.83
2023-01-19T04:29:04.591Z,12.18
2023-01-19T04:31:37.663Z,11.12
2023-01-19T04:34:10.503Z,12.55
2023-01-19T04:36:42.968Z,11.73
2023-01-19T04:39:15.830Z,12.40
2023-01-19T04:41:48.532Z,11.65
2023-01-19T04:44:20.942Z,12.20
2023-01-19T04:46:53.479Z,12.30
2023-01-19T04:49:25.917Z,12.63
2023-01-19T04:51:58.394Z,12.23
2023-01-19T04:54:31.621Z,12.68
2023-01-19T04:57:04.303Z,12.90
2023-01-19T04:59:38.215Z,12.15
2023-01-19T05:02:12.084Z,12.20
2023-01-19T05:04:44.577Z,11.20
2023-01-19T05:07:18.070Z,11.43
2023-01-19T05:09:50.495Z,12.10
2023-01-19T05:12:23.562Z,12.13
2023-01-19T05:14:56.214Z,12.18
2023-01-19T05:17:29.865Z,12.37
2023-01-19T05:20:02.407Z,12.90
2023-01-19T05:22:35.078Z,11.60
2023-01-19T05:25:10.028Z,12.33
2023-01-19T05:27:42.748Z,12.33
2023-01-19T05:30:15.682Z,12.40
2023-01-19T05:32:48.882Z,12.82
2023-01-19T05:35:31.280Z,13.35
2023-01-19T05:37:55.761Z,13.43
2023-01-19T05:40:28.843Z,12.85
2023-01-19T05:43:01.869Z,13.88
2023-01-19T05:45:35.483Z,13.93
2023-01-19T05:48:10.290Z,14.78
2023-01-19T05:50:43.572Z,14.65
2023-01-19T05:53:17.279Z,15.10
2023-01-19T05:55:49.660Z,13.87
2023-01-19T05:58:22.218Z,14.00
2023-01-19T06:00:55.527Z,14.68
2023-01-19T06:03:28.130Z,13.93
2023-01-19T06:06:01.232Z,14.70
2023-01-19T06:08:33.822Z,16.35
2023-01-19T06:11:07.996Z,42.10
2023-01-19T06:13:42.117Z,47.05
2023-01-19T06:16:14.989Z,28.67
2023-01-19T06:18:47.649Z,20.77
2023-01-19T06:21:20.203Z,15.63
2023-01-19T06:23:53.113Z,14.63
2023-01-19T06:26:26.402Z,15.45
2023-01-19T06:28:59.155Z,16.32
2023-01-19T06:31:32.893Z,15.90
2023-01-19T06:34:05.772Z,17.07
2023-01-19T06:36:38.913Z,16.87
2023-01-19T06:39:11.885Z,17.05
2023-01-19T06:41:44.453Z,17.95
2023-01-19T06:44:16.943Z,16.30
2023-01-19T06:46:49.699Z,17.27
2023-01-19T06:49:21.995Z,18.55
2023-01-19T06:51:55.108Z,20.08
2023-01-19T06:54:27.603Z,18.57
2023-01-19T06:57:01.577Z,20.17
2023-01-19T06:59:34.251Z,18.90
2023-01-19T07:02:26.197Z,20.57
2023-01-19T07:04:40.916Z,19.50
2023-01-19T07:07:14.295Z,19.20
2023-01-19T07:09:47.148Z,19.27
2023-01-19T07:12:20.724Z,20.85
2023-01-19T07:14:53.808Z,20.20
2023-01-19T07:17:26.983Z,19.37
2023-01-19T07:20:00.067Z,22.10
2023-01-19T07:22:33.009Z,21.95
2023-01-19T07:25:06.795Z,18.07
2023-01-19T10:19:29.109Z,10.78
2023-01-19T10:22:03.866Z,11.65
2023-01-19T10:24:42.778Z,11.05
2023-01-19T10:27:22.232Z,12.33
2023-01-19T10:29:54.661Z,11.38
2023-01-19T10:32:34.256Z,11.73
2023-01-19T10:38:01.555Z,11.53
2023-01-19T10:40:38.366Z,13.48
2023-01-19T10:43:36.941Z,13.30
2023-01-19T10:46:13.429Z,13.53
2023-01-19T10:48:46.745Z,13.15
2023-01-19T10:51:20.492Z,13.62
2023-01-19T10:54:00.277Z,14.40
2023-01-19T10:56:39.439Z,14.10
2023-01-19T10:59:33.084Z,15.25
2023-01-19T11:02:21.571Z,17.15
2023-01-19T11:05:02.817Z,15.53
2023-01-19T11:07:36.405Z,15.90
2023-01-19T11:10:24.715Z,17.70
2023-01-19T11:13:13.301Z,16.42
2023-01-19T11:15:53.930Z,16.35
2023-01-19T11:18:37.946Z,16.82
2023-01-19T11:21:18.157Z,17.32
2023-01-19T11:23:54.116Z,18.60
2023-01-19T11:26:35.829Z,18.23
2023-01-19T11:29:10.036Z,17.45
2023-01-19T11:31:42.649Z,17.23
2023-01-19T11:34:34.083Z,18.25
2023-01-19T11:37:23.408Z,19.05
2023-01-19T11:40:00.673Z,18.80
2023-01-19T11:42:36.661Z,17.55
2023-01-19T11:45:15.576Z,16.52
2023-01-19T11:47:57.018Z,18.07
2023-01-19T11:50:45.671Z,16.12
2023-01-19T11:53:29.365Z,17.55
2023-01-19T11:56:12.974Z,18.50
2023-01-19T11:58:49.059Z,19.42
2023-01-19T12:01:35.551Z,19.57
2023-01-19T12:04:23.337Z,18.62
2023-01-19T12:06:57.246Z,18.45
2023-01-19T12:09:33.103Z,18.05
2023-01-19T12:12:26.275Z,18.80
2023-01-19T12:15:24.652Z,19.77
2023-01-19T12:18:00.585Z,18.30
2023-01-19T12:20:45.768Z,19.90
2023-01-19T12:23:35.297Z,18.05
2023-01-19T12:26:38.315Z,17.85
2023-01-19T12:29:16.917Z,17.25
2023-01-19T12:32:09.926Z,19.02
2023-01-19T12:34:51.992Z,18.48
2023-01-19T12:37:59.524Z,18.87
2023-01-19T12:40:33.596Z,18.17
2023-01-19T12:43:07.905Z,17.17
2023-01-19T12:45:40.491Z,16.80
2023-01-19T12:48:26.893Z,19.30
2023-01-19T12:50:59.298Z,17.55
2023-01-19T12:53:32.319Z,16.35
2023-01-19T12:56:06.248Z,15.05
2023-01-19T12:58:38.961Z,15.98
2023-01-19T13:01:21.732Z,15.05
2023-01-19T13:04:12.227Z,16.70
2023-01-19T13:07:03.137Z,17.00
2023-01-19T13:09:40.135Z,16.95
2023-01-19T13:12:17.994Z,16.90
2023-01-19T13:14:51.108Z,17.20
2023-01-19T13:17:44.401Z,16.32
2023-01-19T13:20:29.021Z,17.12
2023-01-19T13:23:24.282Z,17.87
2023-01-19T13:26:07.590Z,15.80
2023-01-19T13:28:43.651Z,15.85
2023-01-19T13:31:16.499Z,16.02
2023-01-19T13:34:00.788Z,15.32
2023-01-19T13:36:38.079Z,16.40
2023-01-19T13:39:21.862Z,16.35
2023-01-19T13:41:56.466Z,17.17
2023-01-19T13:47:30.537Z,15.68
2023-01-19T13:50:03.351Z,16.85
2023-01-19T13:52:36.177Z,15.15
2023-01-19T13:55:14.537Z,15.35
2023-01-19T13:57:47.794Z,15.95
2023-01-19T14:00:26.789Z,17.05
2023-01-19T14:03:15.952Z,17.17
2023-01-19T14:05:53.301Z,16.70
2023-01-19T14:08:26.251Z,15.80
2023-01-19T14:11:02.750Z,15.15
2023-01-19T14:13:38.592Z,15.05
2023-01-19T14:16:17.940Z,15.68
2023-01-19T14:19:00.218Z,14.43
2023-01-19T14:21:41.089Z,14.83
2023-01-19T14:24:20.838Z,15.75
2023-01-19T14:26:54.872Z,14.23
2023-01-19T14:29:38.174Z,13.22
2023-01-19T14:32:25.045Z,12.63
2023-01-19T14:35:09.001Z,12.15
2023-01-19T14:37:50.041Z,13.75
2023-01-19T14:40:24.665Z,13.83
2023-01-19T14:43:03.336Z,13.95
2023-01-19T14:45:38.245Z,14.23
2023-01-19T14:48:19.708Z,13.98
2023-01-19T14:51:02.885Z,13.78
2023-01-19T14:56:07.967Z,12.95
2023-01-19T14:58:40.384Z,12.50
2023-01-19T15:01:12.915Z,12.10
2023-01-19T15:03:45.999Z,12.75
2023-01-19T15:06:20.575Z,12.35
2023-01-19T15:08:54.588Z,13.03
2023-01-19T15:11:35.144Z,13.48
2023-01-19T15:14:07.880Z,11.95
2023-01-19T15:16:40.276Z,13.13
2023-01-19T15:19:17.058Z,14.78
2023-01-19T15:21:49.486Z,13.62
2023-01-19T15:24:22.167Z,12.95
2023-01-19T15:26:54.676Z,13.55
2023-01-19T15:29:29.474Z,12.98
2023-01-19T15:32:04.106Z,14.03
2023-01-19T15:34:36.614Z,13.95
2023-01-19T15:37:09.710Z,13.75
2023-01-19T15:39:42.162Z,15.18
2023-01-19T15:42:17.426Z,15.35
2023-01-19T15:44:49.903Z,17.35
2023-01-19T15:47:22.209Z,15.95
2023-01-19T15:49:54.803Z,15.23
2023-01-19T15:52:27.231Z,15.75
2023-01-19T15:54:59.566Z,14.23
2023-01-19T15:57:33.928Z,15.15
2023-01-19T17:29:27.746Z,13.38
2023-01-19T17:32:00.154Z,13.35
2023-01-19T17:34:32.587Z,13.10
2023-01-19T17:37:05.276Z,14.15
2023-01-19T17:39:37.747Z,13.95
2023-01-19T17:42:10.345Z,14.05
2023-01-19T17:44:42.861Z,12.88
2023-01-19T17:47:15.376Z,12.93
2023-01-19T17:49:47.759Z,13.75
2023-01-19T17:52:20.300Z,14.65
2023-01-19T17:54:52.744Z,13.45
2023-01-19T17:57:25.462Z,13.28
2023-01-19T17:59:58.029Z,13.00
2023-01-19T18:02:30.493Z,13.68
2023-01-19T18:05:03.607Z,13.93
2023-01-19T18:07:36.283Z,13.48
2023-01-19T18:10:10.117Z,12.33
2023-01-19T18:12:42.655Z,13.48
2023-01-19T18:15:16.920Z,12.85
2023-01-19T18:17:49.470Z,12.85
2023-01-19T18:20:22.152Z,12.53
2023-01-19T18:22:54.517Z,11.83
2023-01-19T18:25:26.959Z,11.08
2023-01-19T18:27:59.612Z,11.45
2023-01-19T18:30:32.085Z,12.37
2023-01-19T18:33:04.990Z,11.63
2023-01-19T18:35:39.714Z,12.33
2023-01-19T18:38:12.128Z,11.48
2023-01-19T18:40:44.779Z,12.68
2023-01-19T18:43:17.188Z,12.58
2023-01-19T18:45:50.146Z,12.80
2023-01-19T18:48:22.724Z,11.43
2023-01-19T18:50:55.367Z,12.10
2023-01-19T18:53:27.860Z,13.75
2023-01-19T18:56:02.234Z,12.93
2023-01-19T18:58:35.124Z,11.63
2023-01-19T19:01:19.220Z,11.33
2023-01-19T19:06:59.155Z,12.35
2023-01-19T19:09:32.062Z,11.05
2023-01-19T19:12:04.515Z,10.70
2023-01-19T19:14:37.128Z,11.65
2023-01-19T19:17:09.462Z,11.43
2023-01-19T19:19:41.846Z,10.95
2023-01-19T19:22:14.293Z,11.70
2023-01-19T19:24:46.571Z,10.60
2023-01-19T19:27:18.945Z,11.15
2023-01-19T19:29:51.672Z,11.12
2023-01-19T19:32:24.318Z,10.40
2023-01-19T19:34:58.254Z,11.10
2023-01-19T19:37:30.630Z,11.85
2023-01-19T19:40:04.085Z,11.22
2023-01-19T19:42:36.782Z,10.72
2023-01-19T19:45:10.453Z,10.38
2023-01-19T19:47:44.546Z,11.27
2023-01-19T19:50:17.919Z,11.97
2023-01-19T19:52:50.978Z,11.60
2023-01-19T19:55:23.524Z,11.08
2023-01-19T19:57:55.920Z,11.03
2023-01-19T20:00:28.424Z,10.72
2023-01-19T20:03:02.256Z,12.28
2023-01-19T20:05:37.355Z,11.75
2023-01-19T20:08:09.933Z,11.78
2023-01-19T20:10:42.862Z,10.13
2023-01-19T20:13:16.826Z,11.55
2023-01-19T20:15:49.165Z,10.48
2023-01-19T20:18:21.593Z,11.60
2023-01-19T20:20:54.026Z,11.30
2023-01-19T20:23:26.388Z,10.10
2023-01-19T20:25:58.874Z,9.80
2023-01-19T20:28:31.272Z,10.58
2023-01-19T20:31:13.957Z,10.00
2023-01-19T20:33:47.458Z,10.78
2023-01-19T20:36:21.287Z,9.60
2023-01-19T20:38:54.279Z,11.05
2023-01-19T20:41:26.686Z,10.93
2023-01-19T20:43:59.260Z,10.35
2023-01-19T20:46:31.648Z,10.40
2023-01-19T20:49:04.129Z,9.73
2023-01-19T20:51:37.510Z,10.13
2023-01-19T20:54:11.271Z,11.10
2023-01-19T20:56:43.570Z,10.58
2023-01-19T20:59:15.931Z,9.98
2023-01-19T21:01:49.047Z,9.70
2023-01-19T21:04:22.484Z,9.75
2023-01-19T21:06:54.874Z,10.23
2023-01-19T21:09:27.270Z,10.15
2023-01-19T21:11:59.614Z,10.32
2023-01-19T21:14:32.072Z,10.03
2023-01-19T21:17:04.596Z,11.18
2023-01-19T21:19:37.130Z,10.03
2023-01-19T21:22:09.439Z,10.45
2023-01-19T21:24:44.346Z,9.68
2023-01-19T21:27:15.905Z,10.20
2023-01-19T21:29:49.630Z,10.82
2023-01-19T21:32:22.193Z,11.22
2023-01-19T21:34:54.634Z,10.95
2023-01-19T21:37:27.003Z,10.65
2023-01-19T21:39:59.497Z,10.80
2023-01-19T21:42:31.807Z,10.90
2023-01-19T21:45:04.292Z,11.25
2023-01-19T21:47:37.233Z,9.65
2023-01-19T21:50:11.092Z,10.53
2023-01-19T21:52:44.387Z,9.53
2023-01-19T21:55:17.149Z,10.55
2023-01-19T21:57:49.520Z,9.88
2023-01-19T22:00:22.371Z,9.38
2023-01-19T22:03:03.374Z,8.75
2023-01-19T22:05:28.708Z,9.80
2023-01-19T22:08:01.082Z,9.05
2023-01-19T22:10:38.588Z,10.50
2023-01-19T22:13:11.002Z,11.35
2023-01-19T22:15:43.565Z,10.38
2023-01-19T22:18:16.225Z,9.35
2023-01-19T22:20:48.786Z,9.20
2023-01-19T22:23:21.293Z,10.23
2023-01-19T22:25:53.740Z,10.70
2023-01-19T22:28:26.193Z,9.83
2023-01-19T22:31:08.188Z,9.13
2023-01-19T22:33:40.946Z,10.53
2023-01-19T22:36:20.495Z,11.33
2023-01-19T22:38:58.028Z,10.10
2023-01-19T22:41:52.212Z,10.13
2023-01-19T22:44:24.693Z,10.65
2023-01-19T22:46:57.417Z,9.80
2023-01-19T22:49:29.891Z,11.10
2023-01-19T22:52:02.443Z,11.15
2023-01-19T22:54:35.172Z,10.43
2023-01-19T22:57:09.171Z,11.00
2023-01-19T22:59:43.203Z,11.45
2023-01-19T23:02:15.731Z,11.45
2023-01-19T23:04:48.196Z,11.10
2023-01-19T23:07:20.723Z,10.08
2023-01-19T23:09:53.101Z,11.25
2023-01-19T23:12:25.407Z,11.55
2023-01-19T23:14:58.128Z,10.55
2023-01-19T23:17:30.670Z,11.48
2023-01-19T23:20:03.145Z,10.98
2023-01-19T23:22:35.990Z,10.82
2023-01-19T23:25:08.866Z,11.40
2023-01-19T23:27:41.335Z,12.53
2023-01-19T23:30:14.677Z,12.73
2023-01-19T23:32:50.785Z,10.85
2023-01-19T23:35:23.203Z,9.65
2023-01-19T23:37:55.733Z,10.03
2023-01-19T23:40:28.277Z,10.88
2023-01-19T23:43:01.262Z,11.22
2023-01-19T23:45:35.831Z,10.28
2023-01-19T23:50:41.907Z,10.78
2023-01-19T23:53:14.454Z,10.82
2023-01-19T23:55:46.850Z,11.28
2023-01-19T23:58:19.459Z,11.57
